createdAt,value
2019-03-22T00:04:35.581Z,102642.38
2019-03-22T00:09:48.217Z,102640.92
2019-03-22T00:15:01.534Z,102643.73
2019-03-22T00:20:11.854Z,102644.86
2019-03-22T00:25:21.432Z,102647.72
2019-03-22T00:30:33.670Z,102641.27
2019-03-22T00:35:50.030Z,102635.45
2019-03-22T00:41:00.090Z,102635.90
2019-03-22T00:46:16.304Z,102640.44
2019-03-22T00:51:26.415Z,102641.50
2019-03-22T00:56:40.191Z,102645.44
2019-03-22T01:01:52.000Z,102627.95
2019-03-22T01:07:06.438Z,102621.98
2019-03-22T01:12:20.762Z,102616.23
2019-03-22T01:17:32.046Z,102610.54
2019-03-22T01:22:48.037Z,102621.69
2019-03-22T01:27:58.382Z,102618.84
2019-03-22T01:33:12.920Z,102623.48
2019-03-22T01:38:23.629Z,102616.28
2019-03-22T01:43:35.148Z,102609.39
2019-03-22T01:48:47.578Z,102603.48
2019-03-22T01:54:04.798Z,102597.44
2019-03-22T01:59:16.187Z,102597.59
2019-03-22T02:04:25.492Z,102592.73
2019-03-22T02:09:39.734Z,102584.65
2019-03-22T02:14:47.916Z,102597.66
2019-03-22T02:19:59.318Z,102593.02
2019-03-22T02:25:16.142Z,102599.83
2019-03-22T02:30:33.834Z,102590.33
2019-03-22T02:35:46.577Z,102596.34
2019-03-22T02:40:58.421Z,102604.56
2019-03-22T02:46:12.479Z,102604.73
2019-03-22T02:51:27.025Z,102600.38
2019-03-22T02:56:39.058Z,102601.19
2019-03-22T03:01:57.834Z,102603.34
2019-03-22T03:07:04.343Z,102610.69
2019-03-22T03:12:14.770Z,102613.48
2019-03-22T03:17:24.732Z,102619.98
2019-03-22T03:22:39.215Z,102641.14
2019-03-22T03:27:50.739Z,102634.69
2019-03-22T03:33:03.065Z,102636.72
2019-03-22T03:38:13.543Z,102653.22
2019-03-22T03:43:22.187Z,102653.09
2019-03-22T03:48:36.078Z,102650.59
2019-03-22T03:53:47.282Z,102657.80
2019-03-22T03:58:58.546Z,102657.16
2019-03-22T04:04:09.700Z,102661.98
2019-03-22T04:09:39.970Z,102667.06
2019-03-22T04:14:54.280Z,102679.73
2019-03-22T04:20:06.350Z,102674.00
2019-03-22T04:25:16.734Z,102667.48
2019-03-22T04:30:32.503Z,102677.37
2019-03-22T04:35:48.534Z,102669.34
2019-03-22T04:40:59.675Z,102668.73
2019-03-22T04:46:08.661Z,102663.05
2019-03-22T04:51:17.669Z,102659.34
2019-03-22T04:56:27.451Z,102669.31
2019-03-22T05:01:38.908Z,102671.97
2019-03-22T05:06:50.399Z,102670.28
2019-03-22T05:12:04.089Z,102679.23
2019-03-22T05:17:15.995Z,102678.99
2019-03-22T05:22:24.995Z,102695.09
2019-03-22T05:27:37.544Z,102710.20
2019-03-22T05:32:48.738Z,102717.61
2019-03-22T05:38:01.456Z,102714.34
2019-03-22T05:43:10.682Z,102713.17
2019-03-22T05:48:42.407Z,102714.68
2019-03-22T05:53:55.801Z,102710.59
2019-03-22T05:59:05.738Z,102706.69
2019-03-22T06:04:17.216Z,102706.79
2019-03-22T06:09:30.062Z,102721.61
2019-03-22T06:14:38.276Z,102731.05
2019-03-22T06:19:46.798Z,102728.13
2019-03-22T06:24:58.634Z,102727.59
2019-03-22T06:30:12.458Z,102732.58
2019-03-22T06:35:25.573Z,102736.19
2019-03-22T06:40:37.517Z,102734.32
2019-03-22T06:45:46.220Z,102736.92
2019-03-22T06:50:54.186Z,102745.77
2019-03-22T06:56:02.846Z,102750.17
2019-03-22T07:01:11.838Z,102762.11
2019-03-22T07:06:21.778Z,102769.31
2019-03-22T07:11:32.256Z,102752.19
2019-03-22T07:16:42.324Z,102770.58
2019-03-22T07:21:51.868Z,102762.80
2019-03-22T07:27:01.236Z,102769.50
2019-03-22T07:32:10.952Z,102773.45
2019-03-22T07:37:26.165Z,102770.36
2019-03-22T07:42:34.876Z,102758.74
2019-03-22T07:47:45.375Z,102773.29
2019-03-22T07:52:55.680Z,102758.41
2019-03-22T07:58:10.628Z,102759.68
2019-03-22T08:03:26.178Z,102758.03
2019-03-22T08:08:35.844Z,102762.45
2019-03-22T08:13:44.135Z,102751.12
2019-03-22T08:18:51.980Z,102746.55
2019-03-22T08:24:20.021Z,102753.80
2019-03-22T08:29:26.072Z,102743.87
2019-03-22T08:34:32.124Z,102733.67
2019-03-22T08:39:38.576Z,102749.52
2019-03-22T08:44:44.606Z,102749.99
2019-03-22T08:49:52.042Z,102757.05
2019-03-22T08:54:58.875Z,102760.98
2019-03-22T09:00:07.749Z,102759.28
2019-03-22T09:05:14.350Z,102762.78
2019-03-22T09:10:20.213Z,102762.20
2019-03-22T09:15:27.037Z,102762.39
2019-03-22T09:20:33.092Z,102755.52
2019-03-22T09:25:38.979Z,102752.66
2019-03-22T09:30:46.332Z,102754.35
2019-03-22T09:35:54.030Z,102743.81
2019-03-22T09:40:59.738Z,102740.61
2019-03-22T09:46:06.091Z,102749.75
2019-03-22T09:51:11.868Z,102752.94
2019-03-22T09:56:18.017Z,102750.93
2019-03-22T10:01:24.603Z,102744.50
2019-03-22T10:06:30.993Z,102737.88
2019-03-22T10:11:37.619Z,102735.63
2019-03-22T10:16:43.352Z,102736.59
2019-03-22T10:21:49.662Z,102736.78
2019-03-22T10:26:56.187Z,102741.05
2019-03-22T10:32:02.367Z,102738.80
2019-03-22T10:37:08.276Z,102732.34
2019-03-22T10:42:14.362Z,102722.54
2019-03-22T10:47:20.143Z,102727.64
2019-03-22T10:52:26.369Z,102721.67
2019-03-22T10:57:32.112Z,102725.13
2019-03-22T11:02:38.573Z,102722.36
2019-03-22T11:07:44.506Z,102721.45
2019-03-22T11:12:52.280Z,102712.07
2019-03-22T11:17:59.222Z,102694.55
2019-03-22T11:23:05.251Z,102699.64
2019-03-22T11:28:12.095Z,102703.52
2019-03-22T11:33:18.216Z,102683.80
2019-03-22T11:38:25.058Z,102674.05
2019-03-22T11:43:30.640Z,102671.75
2019-03-22T11:48:37.921Z,102665.25
2019-03-22T11:53:43.617Z,102654.84
2019-03-22T11:58:51.053Z,102655.67
2019-03-22T12:03:57.229Z,102652.41
2019-03-22T12:09:03.555Z,102654.79
2019-03-22T12:14:10.921Z,102639.84
2019-03-22T12:19:16.898Z,102643.30
2019-03-22T12:24:23.574Z,102639.50
2019-03-22T12:29:29.803Z,102635.24
2019-03-22T12:34:35.745Z,102632.71
2019-03-22T12:39:41.971Z,102632.73
2019-03-22T12:44:48.429Z,102615.98
2019-03-22T12:49:54.031Z,102616.19
2019-03-22T12:54:59.742Z,102616.03
2019-03-22T13:00:11.105Z,102598.00
2019-03-22T13:05:17.803Z,102593.66
2019-03-22T13:10:27.785Z,102594.69
2019-03-22T13:15:33.403Z,102597.59
2019-03-22T13:20:39.257Z,102599.20
2019-03-22T13:25:45.184Z,102593.55
2019-03-22T13:30:51.698Z,102588.94
2019-03-22T13:35:57.564Z,102573.55
2019-03-22T13:41:04.261Z,102561.72
2019-03-22T13:46:12.211Z,102556.33
2019-03-22T13:51:17.778Z,102555.97
2019-03-22T13:56:24.125Z,102544.73
2019-03-22T14:01:29.997Z,102534.63
2019-03-22T14:06:35.784Z,102535.17
2019-03-22T14:11:42.022Z,102530.17
2019-03-22T14:16:47.827Z,102522.12
2019-03-22T14:21:54.162Z,102509.61
2019-03-22T14:27:00.565Z,102497.34
2019-03-22T14:32:07.935Z,102504.39
2019-03-22T14:37:15.449Z,102501.93
2019-03-22T14:42:21.031Z,102498.32
2019-03-22T14:47:27.566Z,102497.25
2019-03-22T14:52:34.350Z,102486.75
2019-03-22T14:57:48.111Z,102489.25
2019-03-22T15:02:47.359Z,102475.91
2019-03-22T15:07:53.801Z,102480.03
2019-03-22T15:13:00.921Z,102465.41
2019-03-22T15:18:08.365Z,102458.95
2019-03-22T15:23:28.962Z,102456.28
2019-03-22T15:28:47.316Z,102454.48
2019-03-22T15:33:58.595Z,102458.30
2019-03-22T15:39:09.875Z,102458.75
2019-03-22T15:44:16.624Z,102444.94
2019-03-22T15:49:22.858Z,102441.19
2019-03-22T15:54:29.381Z,102434.95
2019-03-22T15:59:35.333Z,102432.94
2019-03-22T16:04:42.238Z,102432.61
2019-03-22T16:09:48.178Z,102432.70
2019-03-22T16:14:54.481Z,102431.56
2019-03-22T16:20:00.252Z,102430.53
2019-03-22T16:25:11.051Z,102418.92
2019-03-22T16:30:18.680Z,102428.49
2019-03-22T16:35:24.971Z,102419.41
2019-03-22T16:40:31.152Z,102414.59
2019-03-22T16:45:39.636Z,102417.45
2019-03-22T16:50:46.102Z,102407.93
2019-03-22T16:55:52.654Z,102401.38
2019-03-22T17:01:01.036Z,102403.45
2019-03-22T17:06:07.557Z,102402.19
